createdAt,value
2022-12-27T00:00:58.776Z,71.19
2022-12-27T00:03:25.431Z,71.03
2022-12-27T00:05:54.410Z,70.96
2022-12-27T00:08:20.984Z,70.59
2022-12-27T00:10:47.597Z,70.76
2022-12-27T00:13:16.605Z,70.79
2022-12-27T00:15:43.328Z,70.81
2022-12-27T00:18:09.931Z,70.92
2022-12-27T00:20:38.688Z,71.05
2022-12-27T00:23:07.401Z,71.21
2022-12-27T00:25:36.248Z,70.92
2022-12-27T00:28:02.879Z,71.23
2022-12-27T00:30:34.359Z,71.08
2022-12-27T00:33:03.497Z,71.21
2022-12-27T00:35:32.606Z,71.08
2022-12-27T00:37:59.479Z,70.57
2022-12-27T00:40:26.024Z,70.91
2022-12-27T00:42:55.967Z,71.00
2022-12-27T00:45:25.658Z,70.85
2022-12-27T00:47:52.299Z,70.86
2022-12-27T00:50:23.666Z,70.82
2022-12-27T00:52:50.459Z,70.84
2022-12-27T00:55:17.288Z,70.76
2022-12-27T00:57:46.290Z,70.96
2022-12-27T01:00:15.699Z,71.06
2022-12-27T01:02:44.732Z,70.82
2022-12-27T01:05:16.680Z,70.88
2022-12-27T01:07:44.423Z,70.81
2022-12-27T01:10:13.413Z,70.81
2022-12-27T01:12:40.073Z,70.62
2022-12-27T01:15:07.293Z,71.24
2022-12-27T01:17:33.994Z,71.74
2022-12-27T01:20:03.189Z,71.40
2022-12-27T01:22:34.798Z,71.61
2022-12-27T01:25:01.406Z,71.47
2022-12-27T01:27:28.354Z,71.29
2022-12-27T01:29:55.078Z,71.24
2022-12-27T01:32:21.735Z,71.43
2022-12-27T01:34:48.488Z,71.27
2022-12-27T01:37:15.047Z,71.57
2022-12-27T01:39:41.693Z,71.71
2022-12-27T01:42:36.087Z,71.86
2022-12-27T01:45:04.135Z,71.96
2022-12-27T01:47:39.998Z,71.55
2022-12-27T01:50:06.833Z,70.72
2022-12-27T01:52:36.516Z,70.20
2022-12-27T01:55:26.435Z,69.52
2022-12-27T01:57:53.883Z,69.04
2022-12-27T02:00:21.134Z,68.45
2022-12-27T02:02:48.089Z,67.97
2022-12-27T02:05:15.282Z,67.83
2022-12-27T02:07:56.469Z,67.52
2022-12-27T02:10:25.539Z,66.99
2022-12-27T02:12:54.460Z,66.58
2022-12-27T02:15:21.033Z,66.34
2022-12-27T02:17:47.696Z,66.55
2022-12-27T02:20:14.598Z,66.44
2022-12-27T02:23:03.056Z,65.51
2022-12-27T02:25:41.669Z,65.43
2022-12-27T02:28:14.843Z,65.27
2022-12-27T02:30:42.117Z,65.10
2022-12-27T02:33:15.346Z,63.70
2022-12-27T02:35:43.392Z,64.23
2022-12-27T02:38:17.810Z,64.46
2022-12-27T02:41:05.353Z,64.36
2022-12-27T02:43:53.169Z,64.30
2022-12-27T02:46:45.006Z,62.58
2022-12-27T02:49:49.171Z,63.29
2022-12-27T02:52:53.518Z,63.80
2022-12-27T02:55:20.135Z,62.88
2022-12-27T02:57:52.699Z,63.07
2022-12-27T03:00:38.594Z,63.09
2022-12-27T03:03:21.129Z,63.54
2022-12-27T03:06:14.735Z,63.44
2022-12-27T03:08:51.751Z,62.44
2022-12-27T03:11:37.076Z,62.26
2022-12-27T03:14:22.364Z,62.67
2022-12-27T03:16:56.193Z,62.40
2022-12-27T03:19:56.654Z,61.61
2022-12-27T03:22:41.990Z,60.88
2022-12-27T03:25:27.135Z,60.99
2022-12-27T03:28:17.170Z,60.75
2022-12-27T03:31:02.529Z,60.13
2022-12-27T03:33:29.164Z,59.27
2022-12-27T03:36:34.306Z,59.28
2022-12-27T03:39:07.152Z,59.70
2022-12-27T03:42:23.718Z,59.11
2022-12-27T03:44:50.412Z,58.54
2022-12-27T03:47:31.255Z,59.33
2022-12-27T03:50:17.120Z,58.60
2022-12-27T03:52:50.055Z,58.08
2022-12-27T03:55:17.297Z,58.14
2022-12-27T03:57:44.045Z,57.96
2022-12-27T04:00:11.293Z,57.81
2022-12-27T04:02:40.927Z,57.73
2022-12-27T04:05:07.823Z,57.81
2022-12-27T04:07:34.425Z,57.76
2022-12-27T04:10:22.152Z,57.90
2022-12-27T04:13:07.945Z,57.61
2022-12-27T04:15:55.840Z,57.72
2022-12-27T04:18:43.218Z,57.62
2022-12-27T04:21:28.926Z,57.94
2022-12-27T04:24:14.093Z,57.95
2022-12-27T04:26:59.774Z,58.24
2022-12-27T04:29:44.998Z,58.52
2022-12-27T04:32:30.269Z,58.67
2022-12-27T04:34:59.093Z,58.75
2022-12-27T04:37:25.743Z,59.02
2022-12-27T04:40:10.994Z,59.10
2022-12-27T04:42:58.418Z,59.16
2022-12-27T04:45:43.742Z,58.98
2022-12-27T04:48:32.015Z,59.16
2022-12-27T04:51:17.255Z,59.21
2022-12-27T04:54:02.628Z,59.22
2022-12-27T04:56:33.858Z,59.23
2022-12-27T04:59:19.079Z,59.37
2022-12-27T05:02:04.100Z,59.53
2022-12-27T05:04:37.098Z,59.75
2022-12-27T05:07:24.275Z,59.92
2022-12-27T05:10:09.515Z,60.05
2022-12-27T05:12:55.145Z,60.00
2022-12-27T05:15:22.010Z,60.36
2022-12-27T05:17:48.619Z,60.28
2022-12-27T05:20:17.637Z,60.31
2022-12-27T05:23:02.984Z,60.29
2022-12-27T05:25:37.106Z,60.47
2022-12-27T05:28:07.985Z,60.85
2022-12-27T05:30:35.866Z,60.82
2022-12-27T05:33:02.776Z,60.93
2022-12-27T05:35:29.725Z,61.02
2022-12-27T05:37:56.404Z,61.23
2022-12-27T05:40:23.549Z,61.27
2022-12-27T05:42:52.734Z,61.32
2022-12-27T05:45:21.717Z,61.36
2022-12-27T05:47:48.361Z,61.27
2022-12-27T05:50:19.739Z,61.41
2022-12-27T05:52:49.573Z,61.28
2022-12-27T05:55:18.515Z,61.22
2022-12-27T05:57:48.029Z,61.34
2022-12-27T06:00:14.786Z,61.50
2022-12-27T06:02:44.111Z,61.67
2022-12-27T06:05:10.975Z,61.85
2022-12-27T06:07:40.423Z,61.53
2022-12-27T06:10:07.544Z,60.52
2022-12-27T06:12:34.165Z,60.55
2022-12-27T06:15:00.821Z,60.49
2022-12-27T06:17:27.507Z,60.44
2022-12-27T06:19:57.256Z,60.66
2022-12-27T06:22:29.357Z,60.44
2022-12-27T06:24:56.081Z,60.60
2022-12-27T06:27:22.757Z,60.77
2022-12-27T06:29:49.294Z,60.81
2022-12-27T06:32:17.773Z,61.18
2022-12-27T06:34:45.214Z,61.25
2022-12-27T06:37:12.371Z,61.02
2022-12-27T06:39:39.105Z,61.18
2022-12-27T06:42:08.094Z,61.19
2022-12-27T06:44:37.031Z,60.83
2022-12-27T06:47:19.640Z,60.56
2022-12-27T06:49:49.132Z,60.98
2022-12-27T06:52:21.572Z,60.68
2022-12-27T06:54:51.057Z,60.60
2022-12-27T06:57:17.832Z,59.78
2022-12-27T06:59:48.090Z,59.61
2022-12-27T07:02:17.796Z,59.55
2022-12-27T07:04:46.917Z,59.65
2022-12-27T07:07:17.103Z,59.52
2022-12-27T07:09:46.065Z,59.27
2022-12-27T07:12:12.786Z,59.17
2022-12-27T07:14:39.399Z,58.86
2022-12-27T07:17:07.739Z,58.59
2022-12-27T07:19:37.503Z,58.21
2022-12-27T07:22:04.154Z,58.29
2022-12-27T07:24:33.573Z,57.90
2022-12-27T07:27:02.844Z,57.80
2022-12-27T07:29:29.454Z,57.56
2022-12-27T07:31:57.720Z,57.51
2022-12-27T07:34:28.931Z,57.37
2022-12-27T07:37:00.207Z,56.45
2022-12-27T07:39:26.939Z,56.93
2022-12-27T07:41:55.988Z,56.88
2022-12-27T07:44:27.118Z,56.68
2022-12-27T07:46:53.760Z,56.99
2022-12-27T07:49:20.474Z,56.18
2022-12-27T07:51:49.471Z,55.93
2022-12-27T07:54:18.529Z,55.56
2022-12-27T07:56:45.225Z,55.73
2022-12-27T07:59:12.849Z,55.63
2022-12-27T08:02:01.528Z,55.70
2022-12-27T08:04:28.726Z,56.27
2022-12-27T08:06:56.971Z,56.35
2022-12-27T08:09:28.206Z,56.08
2022-12-27T08:11:54.916Z,56.47
2022-12-27T08:14:26.570Z,56.78
2022-12-27T08:16:54.158Z,56.51
2022-12-27T08:19:20.879Z,56.81
2022-12-27T08:21:47.500Z,57.46
2022-12-27T08:24:14.429Z,57.57
2022-12-27T08:26:43.428Z,58.10
2022-12-27T08:29:10.289Z,58.71
2022-12-27T08:31:37.057Z,58.51
2022-12-27T08:34:06.485Z,59.08
2022-12-27T08:39:20.270Z,59.02
2022-12-27T08:41:49.340Z,58.51
2022-12-27T08:44:16.135Z,58.38
2022-12-27T08:46:42.887Z,58.02
2022-12-27T08:49:09.556Z,58.07
2022-12-27T08:51:41.094Z,58.02
2022-12-27T08:54:11.574Z,57.58
2022-12-27T08:56:41.042Z,57.58
2022-12-27T08:59:07.977Z,57.06
2022-12-27T09:01:34.839Z,56.43
2022-12-27T09:04:01.484Z,56.88
2022-12-27T09:06:28.346Z,55.72
2022-12-27T09:08:59.770Z,55.80
2022-12-27T09:11:30.272Z,55.60
2022-12-27T09:13:58.055Z,56.00
2022-12-27T09:16:27.625Z,56.27
2022-12-27T09:18:55.181Z,55.06
2022-12-27T09:21:22.699Z,55.03
2022-12-27T09:23:49.779Z,53.58
2022-12-27T09:26:17.550Z,54.15
2022-12-27T09:28:49.201Z,52.98
2022-12-27T09:31:18.999Z,53.34
2022-12-27T09:33:45.818Z,53.58
2022-12-27T09:36:13.511Z,53.87
2022-12-27T09:38:40.220Z,52.66
2022-12-27T09:41:19.425Z,52.86
2022-12-27T09:43:58.857Z,52.78
2022-12-27T09:46:29.956Z,52.00
2022-12-27T09:48:59.120Z,50.15
2022-12-27T09:51:36.767Z,49.44
2022-12-27T09:54:19.651Z,50.19
2022-12-27T09:57:18.332Z,48.96
2022-12-27T09:59:37.482Z,49.75
2022-12-27T10:02:04.561Z,49.83
2022-12-27T10:05:10.033Z,50.42
2022-12-27T10:07:42.623Z,49.07
2022-12-27T10:10:15.917Z,49.63
2022-12-27T10:13:00.054Z,49.73
2022-12-27T10:15:48.432Z,48.56
2022-12-27T10:18:34.080Z,48.05
2022-12-27T10:21:10.321Z,49.49
2022-12-27T10:23:37.371Z,47.77
2022-12-27T10:26:12.990Z,46.51
2022-12-27T10:28:44.001Z,46.53
2022-12-27T10:31:17.596Z,43.95
2022-12-27T10:33:46.517Z,44.55
2022-12-27T10:36:14.313Z,43.84
2022-12-27T10:38:43.197Z,43.86
2022-12-27T10:41:41.263Z,43.38
2022-12-27T10:44:11.598Z,41.94
2022-12-27T10:46:38.408Z,42.34
2022-12-27T10:49:24.571Z,41.03
2022-12-27T10:51:54.089Z,41.26
2022-12-27T10:54:27.841Z,40.10
2022-12-27T10:56:55.022Z,40.45
2022-12-27T10:59:28.634Z,40.75
2022-12-27T11:02:03.328Z,39.80
2022-12-27T11:04:33.663Z,40.27
2022-12-27T11:07:03.097Z,40.39
2022-12-27T11:09:44.936Z,40.53
2022-12-27T11:12:19.459Z,41.05
2022-12-27T11:15:08.915Z,41.62
2022-12-27T11:17:41.377Z,40.16
2022-12-27T11:20:29.288Z,40.56
2022-12-27T11:22:58.706Z,40.76
2022-12-27T11:25:32.943Z,40.46
2022-12-27T11:28:19.952Z,40.35
2022-12-27T11:30:53.245Z,39.86
2022-12-27T11:33:25.970Z,39.76
2022-12-27T11:36:00.005Z,40.19
2022-12-27T11:38:28.072Z,41.01
2022-12-27T11:41:09.982Z,40.79
2022-12-27T11:43:47.994Z,40.17
2022-12-27T11:46:21.633Z,40.19
2022-12-27T11:48:49.590Z,40.11
2022-12-27T11:51:16.646Z,38.84
2022-12-27T11:53:48.710Z,39.65
2022-12-27T11:56:30.726Z,38.15
2022-12-27T11:58:59.539Z,38.45
2022-12-27T12:01:38.511Z,38.40
2022-12-27T12:04:08.375Z,37.91
2022-12-27T12:06:47.895Z,38.58
2022-12-27T12:09:20.612Z,39.16
2022-12-27T12:11:55.371Z,38.76
2022-12-27T12:14:42.359Z,39.28
2022-12-27T12:17:32.435Z,38.66
2022-12-27T12:20:22.946Z,39.20
2022-12-27T12:23:11.576Z,39.04
2022-12-27T12:25:46.640Z,38.38
2022-12-27T12:28:38.367Z,38.22
2022-12-27T12:31:06.553Z,36.37
2022-12-27T12:33:52.810Z,38.10
2022-12-27T12:36:34.945Z,37.38
2022-12-27T12:39:13.924Z,37.54
2022-12-27T12:41:50.315Z,36.89
2022-12-27T12:44:17.469Z,37.01
2022-12-27T12:46:57.770Z,36.60
2022-12-27T12:49:34.038Z,36.36
2022-12-27T12:52:03.716Z,36.50
2022-12-27T12:54:36.606Z,36.83
2022-12-27T12:57:13.345Z,35.99
2022-12-27T12:59:40.131Z,36.58
2022-12-27T13:02:09.464Z,36.03
2022-12-27T13:04:54.011Z,36.07
2022-12-27T13:07:30.363Z,35.98
2022-12-27T13:09:57.862Z,34.48
2022-12-27T13:12:54.220Z,34.94
2022-12-27T13:15:36.203Z,34.91
2022-12-27T13:18:26.606Z,34.67
2022-12-27T13:21:18.210Z,34.97
2022-12-27T13:23:44.960Z,35.31
2022-12-27T13:26:21.544Z,35.31
2022-12-27T13:28:48.195Z,35.69
2022-12-27T13:31:20.864Z,35.40
2022-12-27T13:34:05.819Z,36.14
2022-12-27T13:36:37.429Z,35.45
2022-12-27T13:39:26.157Z,36.12
2022-12-27T13:42:09.045Z,35.92
2022-12-27T13:44:44.882Z,35.13
2022-12-27T13:47:20.936Z,35.17
2022-12-27T13:50:10.809Z,34.65
2022-12-27T13:52:40.229Z,34.54
2022-12-27T13:55:22.218Z,34.03
2022-12-27T13:58:07.527Z,34.50
2022-12-27T14:00:52.517Z,33.91
2022-12-27T14:03:24.522Z,33.17
2022-12-27T14:05:51.323Z,34.04
2022-12-27T14:08:39.949Z,34.54
2022-12-27T14:11:14.765Z,34.87
2022-12-27T14:13:41.822Z,36.26
2022-12-27T14:16:16.040Z,36.57
2022-12-27T14:18:45.098Z,37.06
2022-12-27T14:21:15.561Z,37.50
2022-12-27T14:23:45.782Z,38.56
2022-12-27T14:26:21.574Z,38.47
2022-12-27T14:29:00.296Z,38.86
2022-12-27T14:31:37.843Z,39.09
2022-12-27T14:34:16.670Z,40.12
2022-12-27T14:37:03.864Z,40.07
2022-12-27T14:39:45.736Z,40.01
2022-12-27T14:42:23.872Z,40.42
2022-12-27T14:45:11.555Z,39.63
2022-12-27T14:47:47.476Z,40.52
2022-12-27T14:50:17.041Z,41.57
2022-12-27T14:52:52.535Z,41.03
2022-12-27T14:55:37.664Z,41.84
2022-12-27T14:58:23.020Z,41.85
2022-12-27T15:00:49.760Z,41.48
2022-12-27T15:03:38.041Z,41.63
2022-12-27T15:06:16.419Z,41.95
2022-12-27T15:08:53.345Z,42.05
2022-12-27T15:11:45.708Z,41.83
2022-12-27T15:14:24.795Z,42.44
2022-12-27T15:16:57.950Z,42.41
2022-12-27T15:19:46.259Z,43.14
2022-12-27T15:22:48.385Z,43.63
2022-12-27T15:25:19.891Z,43.25
2022-12-27T15:27:55.752Z,42.95
2022-12-27T15:30:41.309Z,42.77
2022-12-27T15:33:14.081Z,42.82
2022-12-27T15:35:44.636Z,43.13
2022-12-27T15:38:15.109Z,43.06
2022-12-27T15:41:10.366Z,42.77
2022-12-27T15:43:46.556Z,42.99
2022-12-27T15:46:26.297Z,42.96
2022-12-27T15:48:55.797Z,42.70
2022-12-27T15:51:48.739Z,43.36
2022-12-27T15:54:18.536Z,43.70
2022-12-27T15:56:45.096Z,43.69
2022-12-27T15:59:30.638Z,43.39
2022-12-27T16:02:32.428Z,43.36
2022-12-27T16:05:02.583Z,43.02
2022-12-27T16:07:37.940Z,43.44
2022-12-27T16:10:35.257Z,43.57
2022-12-27T16:13:07.708Z,44.09
2022-12-27T16:15:37.659Z,44.09
2022-12-27T16:18:13.727Z,44.16
2022-12-27T16:20:44.608Z,44.61
2022-12-27T16:23:11.451Z,44.72
2022-12-27T16:25:38.866Z,44.81
2022-12-27T16:28:09.245Z,44.74
2022-12-27T16:30:43.119Z,45.23
2022-12-27T16:33:33.610Z,44.95
2022-12-27T16:36:06.355Z,44.70
2022-12-27T16:38:33.823Z,45.21
2022-12-27T16:41:11.714Z,44.59
2022-12-27T16:44:04.773Z,44.23
2022-12-27T16:46:52.099Z,45.19
2022-12-27T16:49:46.090Z,43.63
2022-12-27T16:52:12.705Z,43.63
2022-12-27T16:54:42.346Z,44.42
2022-12-27T16:57:22.425Z,44.09
2022-12-27T16:59:56.515Z,44.25
2022-12-27T17:02:38.971Z,44.77
2022-12-27T17:05:17.283Z,44.50
2022-12-27T17:07:55.991Z,44.49
2022-12-27T17:10:25.667Z,44.23
2022-12-27T17:12:53.057Z,44.91
2022-12-27T17:15:19.990Z,44.19
2022-12-27T17:17:47.024Z,44.36
2022-12-27T17:20:15.029Z,44.90
2022-12-27T17:22:43.741Z,45.50
2022-12-27T17:25:16.772Z,45.33
2022-12-27T17:27:48.785Z,46.16
2022-12-27T17:30:41.849Z,46.38
2022-12-27T17:33:20.847Z,45.63
2022-12-27T17:35:52.890Z,46.25
2022-12-27T17:38:24.697Z,46.27
2022-12-27T17:40:59.640Z,45.55
2022-12-27T17:44:04.848Z,46.08
2022-12-27T17:46:46.804Z,45.81
2022-12-27T17:49:13.641Z,45.88
2022-12-27T17:51:45.032Z,46.08
2022-12-27T17:54:43.116Z,45.73
2022-12-27T17:57:30.051Z,46.16
2022-12-27T17:59:56.835Z,45.99
2022-12-27T18:02:37.811Z,46.48
2022-12-27T18:05:05.302Z,46.48
2022-12-27T18:07:32.798Z,47.03
2022-12-27T18:10:03.760Z,46.66
2022-12-27T18:12:30.721Z,46.88
2022-12-27T18:15:16.361Z,46.75
2022-12-27T18:17:43.584Z,46.86
2022-12-27T18:20:28.755Z,46.68
2022-12-27T18:23:01.684Z,47.30
2022-12-27T18:25:29.717Z,46.94
2022-12-27T18:28:00.427Z,46.90
2022-12-27T18:30:32.472Z,47.22
2022-12-27T18:33:08.925Z,47.67
2022-12-27T18:35:35.693Z,47.44
2022-12-27T18:38:04.720Z,47.45
2022-12-27T18:40:34.519Z,47.32
2022-12-27T18:43:01.301Z,47.40
2022-12-27T18:45:29.284Z,47.45
2022-12-27T18:47:56.775Z,47.83
2022-12-27T18:50:30.551Z,47.27
2022-12-27T18:53:06.773Z,47.53
2022-12-27T18:55:36.246Z,47.69
2022-12-27T18:58:06.022Z,47.77
2022-12-27T19:00:32.697Z,47.63
2022-12-27T19:03:15.394Z,47.84
2022-12-27T19:06:00.922Z,47.73
2022-12-27T19:08:44.427Z,47.79
2022-12-27T19:11:20.658Z,47.98
2022-12-27T19:13:52.512Z,47.81
2022-12-27T19:16:24.196Z,47.93
2022-12-27T19:18:59.144Z,47.65
2022-12-27T19:21:31.241Z,47.83
2022-12-27T19:23:57.789Z,47.66
2022-12-27T19:26:25.818Z,47.69
2022-12-27T19:29:00.844Z,47.65
2022-12-27T19:31:27.538Z,47.13
2022-12-27T19:34:09.773Z,47.21
2022-12-27T19:36:40.339Z,47.57
2022-12-27T19:39:10.451Z,47.56
2022-12-27T19:41:38.366Z,47.66
2022-12-27T19:44:09.017Z,47.94
2022-12-27T19:46:38.402Z,48.16
2022-12-27T19:49:40.414Z,48.10
2022-12-27T19:51:52.105Z,48.44
2022-12-27T19:54:19.616Z,49.09
2022-12-27T19:56:48.389Z,49.48
2022-12-27T19:59:16.090Z,49.50
2022-12-27T20:01:47.483Z,49.20
2022-12-27T20:04:14.630Z,48.69
2022-12-27T20:06:43.591Z,49.41
2022-12-27T20:09:11.097Z,49.10
2022-12-27T20:11:37.739Z,49.07
2022-12-27T20:14:04.444Z,49.07
2022-12-27T20:16:33.547Z,49.07
2022-12-27T20:19:03.278Z,49.14
2022-12-27T20:21:29.976Z,48.99
2022-12-27T20:23:58.844Z,49.24
2022-12-27T20:26:26.238Z,48.85
2022-12-27T20:28:55.314Z,48.83
2022-12-27T20:31:22.540Z,48.66
2022-12-27T20:33:55.295Z,48.58
2022-12-27T20:36:22.928Z,48.39
2022-12-27T20:38:54.180Z,48.55
2022-12-27T20:41:21.336Z,48.54
2022-12-27T20:43:54.866Z,48.34
2022-12-27T20:46:24.063Z,48.79
2022-12-27T20:48:56.752Z,48.76
2022-12-27T20:51:27.559Z,48.64
2022-12-27T20:53:55.251Z,48.67
2022-12-27T20:56:21.974Z,48.71
2022-12-27T20:58:48.588Z,48.79
2022-12-27T21:01:16.489Z,48.91
2022-12-27T21:03:43.877Z,49.02
2022-12-27T21:06:15.470Z,49.23
2022-12-27T21:08:47.978Z,49.26
2022-12-27T21:11:20.269Z,49.33
2022-12-27T21:13:47.808Z,49.28
2022-12-27T21:16:20.654Z,49.75
2022-12-27T21:18:47.674Z,49.85
2022-12-27T21:21:20.856Z,49.87
2022-12-27T21:23:51.106Z,50.14
2022-12-27T21:26:23.771Z,49.61
2022-12-27T21:28:50.822Z,49.72
2022-12-27T21:31:17.710Z,49.75
2022-12-27T21:33:44.739Z,49.94
2022-12-27T21:36:16.689Z,49.73
2022-12-27T21:38:43.545Z,49.78
2022-12-27T21:41:11.870Z,50.45
2022-12-27T21:43:38.519Z,50.36
2022-12-27T21:46:06.756Z,50.50
2022-12-27T21:48:33.712Z,50.66
2022-12-27T21:51:07.146Z,50.53
2022-12-27T21:53:36.089Z,50.50
2022-12-27T21:56:02.811Z,50.45
2022-12-27T21:58:34.717Z,50.26
2022-12-27T22:01:09.247Z,50.98
2022-12-27T22:03:37.116Z,51.24
2022-12-27T22:06:11.194Z,51.29
2022-12-27T22:08:40.533Z,51.14
2022-12-27T22:11:07.387Z,51.12
2022-12-27T22:13:34.153Z,51.06
2022-12-27T22:16:04.744Z,50.76
2022-12-27T22:18:35.312Z,50.38
2022-12-27T22:21:05.463Z,50.36
2022-12-27T22:23:36.405Z,50.21
2022-12-27T22:26:03.230Z,50.16
2022-12-27T22:28:29.858Z,50.17
2022-12-27T22:30:57.084Z,50.10
2022-12-27T22:33:26.762Z,49.73
2022-12-27T22:35:53.430Z,49.62
2022-12-27T22:38:20.033Z,49.89
2022-12-27T22:40:49.002Z,49.80
2022-12-27T22:43:15.678Z,49.84
2022-12-27T22:45:42.754Z,50.00
2022-12-27T22:48:14.264Z,50.01
2022-12-27T22:50:43.237Z,50.26
2022-12-27T22:53:09.929Z,50.26
2022-12-27T22:55:40.152Z,50.26
2022-12-27T22:58:07.235Z,50.59
2022-12-27T23:00:33.851Z,50.43
2022-12-27T23:03:00.716Z,50.56
2022-12-27T23:05:27.333Z,50.30
2022-12-27T23:08:05.937Z,50.37
2022-12-27T23:10:36.660Z,50.33
2022-12-27T23:13:03.785Z,50.93
2022-12-27T23:15:33.130Z,50.64
2022-12-27T23:17:59.907Z,50.76
2022-12-27T23:20:28.969Z,50.82
2022-12-27T23:22:55.550Z,50.65
2022-12-27T23:25:25.362Z,50.77
2022-12-27T23:27:52.067Z,50.63
2022-12-27T23:30:19.606Z,50.70
2022-12-27T23:32:46.163Z,50.62
2022-12-27T23:35:12.804Z,50.71
2022-12-27T23:37:39.450Z,50.72
2022-12-27T23:40:09.252Z,50.57
2022-12-27T23:42:38.638Z,50.79
2022-12-27T23:45:05.595Z,50.78
2022-12-27T23:47:32.213Z,50.65
2022-12-27T23:49:58.924Z,50.72
2022-12-27T23:52:27.906Z,50.60
2022-12-27T23:54:54.443Z,50.49
2022-12-27T23:57:23.637Z,50.50
2022-12-27T23:59:55.475Z,50.56
